sensor_id;sensor_type;location;lat;lon;timestamp;temperature;humidity
77985;DHT22;67177;47.240;-1.546;2023-10-08T00:01:03;14.90;70.50
77985;DHT22;67177;47.240;-1.546;2023-10-08T00:03:29;14.90;70.50
77985;DHT22;67177;47.240;-1.546;2023-10-08T00:05:55;14.90;70.60
77985;DHT22;67177;47.240;-1.546;2023-10-08T00:08:22;14.80;70.60
77985;DHT22;67177;47.240;-1.546;2023-10-08T00:10:48;14.80;70.60
77985;DHT22;67177;47.240;-1.546;2023-10-08T00:13:14;14.80;70.60
77985;DHT22;67177;47.240;-1.546;2023-10-08T00:15:44;14.80;70.70
77985;DHT22;67177;47.240;-1.546;2023-10-08T00:18:20;14.70;70.80
77985;DHT22;67177;47.240;-1.546;2023-10-08T00:20:47;14.70;70.70
77985;DHT22;67177;47.240;-1.546;2023-10-08T00:23:37;14.70;70.80
77985;DHT22;67177;47.240;-1.546;2023-10-08T00:26:10;14.70;70.80
77985;DHT22;67177;47.240;-1.546;2023-10-08T00:28:35;14.70;70.80
77985;DHT22;67177;47.240;-1.546;2023-10-08T00:31:04;14.70;70.80
77985;DHT22;67177;47.240;-1.546;2023-10-08T00:33:32;14.70;70.90
77985;DHT22;67177;47.240;-1.546;2023-10-08T00:35:57;14.70;71.00
77985;DHT22;67177;47.240;-1.546;2023-10-08T00:38:23;14.70;70.90
77985;DHT22;67177;47.240;-1.546;2023-10-08T00:40:57;14.70;71.00
77985;DHT22;67177;47.240;-1.546;2023-10-08T00:43:32;14.70;71.00
77985;DHT22;67177;47.240;-1.546;2023-10-08T00:45:59;14.70;70.90
77985;DHT22;67177;47.240;-1.546;2023-10-08T00:48:29;14.60;71.00
77985;DHT22;67177;47.240;-1.546;2023-10-08T00:51:01;14.60;71.00
77985;DHT22;67177;47.240;-1.546;2023-10-08T00:54:00;14.60;71.10
77985;DHT22;67177;47.240;-1.546;2023-10-08T00:56:33;14.60;71.20
77985;DHT22;67177;47.240;-1.546;2023-10-08T00:59:16;14.60;71.20
77985;DHT22;67177;47.240;-1.546;2023-10-08T01:01:45;14.50;71.20
77985;DHT22;67177;47.240;-1.546;2023-10-08T01:04:20;14.50;71.30
77985;DHT22;67177;47.240;-1.546;2023-10-08T01:06:56;14.50;71.40
77985;DHT22;67177;47.240;-1.546;2023-10-08T01:09:27;14.50;71.50
77985;DHT22;67177;47.240;-1.546;2023-10-08T01:12:15;14.40;71.60
77985;DHT22;67177;47.240;-1.546;2023-10-08T01:14:42;14.40;71.70
77985;DHT22;67177;47.240;-1.546;2023-10-08T01:17:11;14.40;71.60
77985;DHT22;67177;47.240;-1.546;2023-10-08T01:19:42;14.30;71.60
77985;DHT22;67177;47.240;-1.546;2023-10-08T01:22:11;14.30;71.80
77985;DHT22;67177;47.240;-1.546;2023-10-08T01:25:04;14.30;71.80
77985;DHT22;67177;47.240;-1.546;2023-10-08T01:27:30;14.20;71.80
77985;DHT22;67177;47.240;-1.546;2023-10-08T01:30:00;14.20;71.80
77985;DHT22;67177;47.240;-1.546;2023-10-08T01:32:43;14.20;71.80
77985;DHT22;67177;47.240;-1.546;2023-10-08T01:35:09;14.20;71.80
77985;DHT22;67177;47.240;-1.546;2023-10-08T01:37:54;14.20;71.80
77985;DHT22;67177;47.240;-1.546;2023-10-08T01:40:22;14.10;71.80
77985;DHT22;67177;47.240;-1.546;2023-10-08T01:42:50;14.10;71.70
77985;DHT22;67177;47.240;-1.546;2023-10-08T01:45:17;14.10;71.80
77985;DHT22;67177;47.240;-1.546;2023-10-08T01:47:44;14.10;71.70
77985;DHT22;67177;47.240;-1.546;2023-10-08T01:50:10;14.10;71.70
77985;DHT22;67177;47.240;-1.546;2023-10-08T01:52:47;14.10;71.80
77985;DHT22;67177;47.240;-1.546;2023-10-08T01:55:13;14.00;71.70
77985;DHT22;67177;47.240;-1.546;2023-10-08T01:57:50;14.00;71.80
77985;DHT22;67177;47.240;-1.546;2023-10-08T02:00:19;14.00;72.00
77985;DHT22;67177;47.240;-1.546;2023-10-08T02:02:51;14.00;72.00
77985;DHT22;67177;47.240;-1.546;2023-10-08T02:05:17;14.00;72.00
77985;DHT22;67177;47.240;-1.546;2023-10-08T02:07:47;14.00;72.10
77985;DHT22;67177;47.240;-1.546;2023-10-08T02:10:13;14.00;72.20
77985;DHT22;67177;47.240;-1.546;2023-10-08T02:12:40;14.00;72.20
77985;DHT22;67177;47.240;-1.546;2023-10-08T02:15:07;13.90;72.20
77985;DHT22;67177;47.240;-1.546;2023-10-08T02:17:34;13.90;72.40
77985;DHT22;67177;47.240;-1.546;2023-10-08T02:20:00;13.90;72.30
77985;DHT22;67177;47.240;-1.546;2023-10-08T02:22:25;13.80;72.50
77985;DHT22;67177;47.240;-1.546;2023-10-08T02:24:51;13.80;72.60
77985;DHT22;67177;47.240;-1.546;2023-10-08T02:27:18;13.80;72.60
77985;DHT22;67177;47.240;-1.546;2023-10-08T02:29:44;13.80;72.60
77985;DHT22;67177;47.240;-1.546;2023-10-08T02:32:10;13.80;72.60
77985;DHT22;67177;47.240;-1.546;2023-10-08T02:34:35;13.80;72.60
77985;DHT22;67177;47.240;-1.546;2023-10-08T02:37:01;13.80;72.60
77985;DHT22;67177;47.240;-1.546;2023-10-08T02:39:29;13.80;72.60
77985;DHT22;67177;47.240;-1.546;2023-10-08T02:41:58;13.80;72.60
77985;DHT22;67177;47.240;-1.546;2023-10-08T02:44:26;13.80;72.60
77985;DHT22;67177;47.240;-1.546;2023-10-08T02:46:52;13.80;72.60
77985;DHT22;67177;47.240;-1.546;2023-10-08T02:49:20;13.80;72.60
77985;DHT22;67177;47.240;-1.546;2023-10-08T02:51:51;13.80;72.60
77985;DHT22;67177;47.240;-1.546;2023-10-08T02:54:18;13.80;72.70
77985;DHT22;67177;47.240;-1.546;2023-10-08T02:56:48;13.80;72.60
77985;DHT22;67177;47.240;-1.546;2023-10-08T02:59:16;13.70;72.60
77985;DHT22;67177;47.240;-1.546;2023-10-08T03:01:42;13.70;72.70
77985;DHT22;67177;47.240;-1.546;2023-10-08T03:04:11;13.70;72.80
77985;DHT22;67177;47.240;-1.546;2023-10-08T03:06:46;13.70;72.80
77985;DHT22;67177;47.240;-1.546;2023-10-08T03:09:19;13.70;72.80
77985;DHT22;67177;47.240;-1.546;2023-10-08T03:11:49;13.70;72.80
77985;DHT22;67177;47.240;-1.546;2023-10-08T03:14:19;13.70;72.90
77985;DHT22;67177;47.240;-1.546;2023-10-08T03:16:52;13.60;72.80
77985;DHT22;67177;47.240;-1.546;2023-10-08T03:19:19;13.60;72.90
77985;DHT22;67177;47.240;-1.546;2023-10-08T03:21:46;13.60;72.90
77985;DHT22;67177;47.240;-1.546;2023-10-08T03:24:19;13.60;72.80
77985;DHT22;67177;47.240;-1.546;2023-10-08T03:27:04;13.60;72.90
77985;DHT22;67177;47.240;-1.546;2023-10-08T03:29:37;13.60;72.90
77985;DHT22;67177;47.240;-1.546;2023-10-08T03:32:10;13.60;72.80
77985;DHT22;67177;47.240;-1.546;2023-10-08T03:34:48;13.60;72.80
77985;DHT22;67177;47.240;-1.546;2023-10-08T03:37:20;13.60;72.90
77985;DHT22;67177;47.240;-1.546;2023-10-08T03:39:47;13.60;72.90
77985;DHT22;67177;47.240;-1.546;2023-10-08T03:42:21;13.60;72.90
77985;DHT22;67177;47.240;-1.546;2023-10-08T03:44:51;13.60;72.90
77985;DHT22;67177;47.240;-1.546;2023-10-08T03:47:24;13.60;73.00
77985;DHT22;67177;47.240;-1.546;2023-10-08T03:49:52;13.60;73.00
77985;DHT22;67177;47.240;-1.546;2023-10-08T03:52:19;13.60;73.10
77985;DHT22;67177;47.240;-1.546;2023-10-08T03:54:49;13.50;73.20
77985;DHT22;67177;47.240;-1.546;2023-10-08T03:57:25;13.50;73.30
77985;DHT22;67177;47.240;-1.546;2023-10-08T03:59:51;13.50;73.30
77985;DHT22;67177;47.240;-1.546;2023-10-08T04:02:20;13.50;73.50
77985;DHT22;67177;47.240;-1.546;2023-10-08T04:04:57;13.50;73.50
77985;DHT22;67177;47.240;-1.546;2023-10-08T04:07:25;13.50;73.50
77985;DHT22;67177;47.240;-1.546;2023-10-08T04:10:02;13.50;73.60
77985;DHT22;67177;47.240;-1.546;2023-10-08T04:12:50;13.50;73.60
77985;DHT22;67177;47.240;-1.546;2023-10-08T04:15:19;13.50;73.50
77985;DHT22;67177;47.240;-1.546;2023-10-08T04:17:45;13.50;73.60
77985;DHT22;67177;47.240;-1.546;2023-10-08T04:20:16;13.40;73.80
77985;DHT22;67177;47.240;-1.546;2023-10-08T04:23:01;13.40;73.80
77985;DHT22;67177;47.240;-1.546;2023-10-08T04:25:28;13.40;73.90
77985;DHT22;67177;47.240;-1.546;2023-10-08T04:27:55;13.40;73.80
77985;DHT22;67177;47.240;-1.546;2023-10-08T04:30:27;13.40;73.80
77985;DHT22;67177;47.240;-1.546;2023-10-08T04:33:05;13.30;74.00
77985;DHT22;67177;47.240;-1.546;2023-10-08T04:35:39;13.30;74.10
77985;DHT22;67177;47.240;-1.546;2023-10-08T04:38:22;13.30;74.10
77985;DHT22;67177;47.240;-1.546;2023-10-08T04:40:49;13.30;74.20
77985;DHT22;67177;47.240;-1.546;2023-10-08T04:43:18;13.30;74.30
77985;DHT22;67177;47.240;-1.546;2023-10-08T04:45:51;13.30;74.40
77985;DHT22;67177;47.240;-1.546;2023-10-08T04:48:17;13.30;74.40
77985;DHT22;67177;47.240;-1.546;2023-10-08T04:50:48;13.30;74.40
77985;DHT22;67177;47.240;-1.546;2023-10-08T04:53:31;13.30;74.50
77985;DHT22;67177;47.240;-1.546;2023-10-08T04:55:59;13.30;74.50
77985;DHT22;67177;47.240;-1.546;2023-10-08T04:58:31;13.30;74.40
77985;DHT22;67177;47.240;-1.546;2023-10-08T05:01:00;13.30;74.30
77985;DHT22;67177;47.240;-1.546;2023-10-08T05:03:43;13.30;74.30
77985;DHT22;67177;47.240;-1.546;2023-10-08T05:06:22;13.30;74.30
77985;DHT22;67177;47.240;-1.546;2023-10-08T05:09:12;13.30;74.50
77985;DHT22;67177;47.240;-1.546;2023-10-08T05:11:38;13.20;74.50
77985;DHT22;67177;47.240;-1.546;2023-10-08T05:14:14;13.20;74.60
77985;DHT22;67177;47.240;-1.546;2023-10-08T05:17:03;13.20;74.60
77985;DHT22;67177;47.240;-1.546;2023-10-08T05:19:37;13.30;74.50
77985;DHT22;67177;47.240;-1.546;2023-10-08T05:22:09;13.20;74.60
77985;DHT22;67177;47.240;-1.546;2023-10-08T05:25:04;13.20;74.50
77985;DHT22;67177;47.240;-1.546;2023-10-08T05:27:43;13.20;74.50
77985;DHT22;67177;47.240;-1.546;2023-10-08T05:30:16;13.20;74.50
77985;DHT22;67177;47.240;-1.546;2023-10-08T05:32:53;13.20;74.60
77985;DHT22;67177;47.240;-1.546;2023-10-08T05:35:38;13.20;74.50
77985;DHT22;67177;47.240;-1.546;2023-10-08T05:38:12;13.20;74.60
77985;DHT22;67177;47.240;-1.546;2023-10-08T05:40:50;13.20;74.60
77985;DHT22;67177;47.240;-1.546;2023-10-08T05:43:25;13.10;74.70
77985;DHT22;67177;47.240;-1.546;2023-10-08T05:46:08;13.10;74.80
77985;DHT22;67177;47.240;-1.546;2023-10-08T05:48:54;13.10;75.00
77985;DHT22;67177;47.240;-1.546;2023-10-08T05:54:16;13.10;75.00
77985;DHT22;67177;47.240;-1.546;2023-10-08T05:57:05;13.10;75.10
77985;DHT22;67177;47.240;-1.546;2023-10-08T05:59:40;13.10;75.00
77985;DHT22;67177;47.240;-1.546;2023-10-08T06:02:26;13.10;74.90
77985;DHT22;67177;47.240;-1.546;2023-10-08T06:05:09;13.00;74.90
77985;DHT22;67177;47.240;-1.546;2023-10-08T06:07:48;13.00;75.00
77985;DHT22;67177;47.240;-1.546;2023-10-08T06:13:14;13.00;75.00
77985;DHT22;67177;47.240;-1.546;2023-10-08T06:15:51;13.00;75.10
77985;DHT22;67177;47.240;-1.546;2023-10-08T06:18:24;13.00;75.20
77985;DHT22;67177;47.240;-1.546;2023-10-08T06:23:24;13.00;75.00
77985;DHT22;67177;47.240;-1.546;2023-10-08T06:25:52;13.00;75.10
77985;DHT22;67177;47.240;-1.546;2023-10-08T06:28:25;13.00;75.20
77985;DHT22;67177;47.240;-1.546;2023-10-08T06:30:53;13.00;75.30
77985;DHT22;67177;47.240;-1.546;2023-10-08T06:33:20;13.00;75.30
77985;DHT22;67177;47.240;-1.546;2023-10-08T06:35:46;13.00;75.30
77985;DHT22;67177;47.240;-1.546;2023-10-08T06:38:31;13.00;75.30
77985;DHT22;67177;47.240;-1.546;2023-10-08T06:41:02;13.00;75.30
77985;DHT22;67177;47.240;-1.546;2023-10-08T06:43:35;13.00;75.30
77985;DHT22;67177;47.240;-1.546;2023-10-08T06:46:02;13.00;75.30
77985;DHT22;67177;47.240;-1.546;2023-10-08T06:48:29;13.00;75.20
77985;DHT22;67177;47.240;-1.546;2023-10-08T06:50:56;13.10;75.20
77985;DHT22;67177;47.240;-1.546;2023-10-08T06:53:35;13.10;75.30
77985;DHT22;67177;47.240;-1.546;2023-10-08T06:56:04;13.10;75.20
77985;DHT22;67177;47.240;-1.546;2023-10-08T06:58:33;13.10;75.30
77985;DHT22;67177;47.240;-1.546;2023-10-08T07:00:58;13.10;75.50
77985;DHT22;67177;47.240;-1.546;2023-10-08T07:03:30;13.10;75.30
77985;DHT22;67177;47.240;-1.546;2023-10-08T07:05:57;13.20;75.30
77985;DHT22;67177;47.240;-1.546;2023-10-08T07:08:42;13.20;75.40
77985;DHT22;67177;47.240;-1.546;2023-10-08T07:11:12;13.20;75.40
77985;DHT22;67177;47.240;-1.546;2023-10-08T07:13:39;13.30;75.40
77985;DHT22;67177;47.240;-1.546;2023-10-08T07:16:06;13.30;75.30
77985;DHT22;67177;47.240;-1.546;2023-10-08T07:18:37;13.30;75.30
77985;DHT22;67177;47.240;-1.546;2023-10-08T07:21:03;13.40;75.30
77985;DHT22;67177;47.240;-1.546;2023-10-08T07:23:38;13.40;75.30
77985;DHT22;67177;47.240;-1.546;2023-10-08T07:26:22;13.40;75.20
77985;DHT22;67177;47.240;-1.546;2023-10-08T07:28:50;13.50;75.30
77985;DHT22;67177;47.240;-1.546;2023-10-08T07:31:20;13.50;75.30
77985;DHT22;67177;47.240;-1.546;2023-10-08T07:33:54;13.50;75.20
77985;DHT22;67177;47.240;-1.546;2023-10-08T07:36:41;13.50;75.10
77985;DHT22;67177;47.240;-1.546;2023-10-08T07:39:08;13.60;75.10
77985;DHT22;67177;47.240;-1.546;2023-10-08T07:41:47;13.60;75.10
77985;DHT22;67177;47.240;-1.546;2023-10-08T07:44:13;13.60;75.10
77985;DHT22;67177;47.240;-1.546;2023-10-08T07:46:39;13.70;75.00
77985;DHT22;67177;47.240;-1.546;2023-10-08T07:49:04;13.70;75.00
77985;DHT22;67177;47.240;-1.546;2023-10-08T07:51:31;13.80;75.00
77985;DHT22;67177;47.240;-1.546;2023-10-08T07:53:56;13.80;74.90
77985;DHT22;67177;47.240;-1.546;2023-10-08T07:56:23;13.80;74.90
77985;DHT22;67177;47.240;-1.546;2023-10-08T07:58:52;13.90;74.80
77985;DHT22;67177;47.240;-1.546;2023-10-08T08:01:22;13.90;74.80
77985;DHT22;67177;47.240;-1.546;2023-10-08T08:03:50;13.90;74.90
77985;DHT22;67177;47.240;-1.546;2023-10-08T08:06:15;14.00;74.80
77985;DHT22;67177;47.240;-1.546;2023-10-08T08:08:41;14.00;74.90
77985;DHT22;67177;47.240;-1.546;2023-10-08T08:11:08;14.10;74.80
77985;DHT22;67177;47.240;-1.546;2023-10-08T08:13:40;14.10;74.70
77985;DHT22;67177;47.240;-1.546;2023-10-08T08:16:13;14.10;74.70
77985;DHT22;67177;47.240;-1.546;2023-10-08T08:18:48;14.20;74.70
77985;DHT22;67177;47.240;-1.546;2023-10-08T08:21:25;14.20;74.60
77985;DHT22;67177;47.240;-1.546;2023-10-08T08:23:51;14.30;74.60
77985;DHT22;67177;47.240;-1.546;2023-10-08T08:26:24;14.30;74.60
77985;DHT22;67177;47.240;-1.546;2023-10-08T08:28:56;14.30;74.60
77985;DHT22;67177;47.240;-1.546;2023-10-08T08:31:26;14.40;74.40
77985;DHT22;67177;47.240;-1.546;2023-10-08T08:33:52;14.50;74.50
77985;DHT22;67177;47.240;-1.546;2023-10-08T08:36:23;14.50;74.40
77985;DHT22;67177;47.240;-1.546;2023-10-08T08:38:49;14.50;74.50
77985;DHT22;67177;47.240;-1.546;2023-10-08T08:41:15;14.60;74.50
77985;DHT22;67177;47.240;-1.546;2023-10-08T08:43:55;14.60;74.50
77985;DHT22;67177;47.240;-1.546;2023-10-08T08:46:32;14.70;74.40
77985;DHT22;67177;47.240;-1.546;2023-10-08T08:49:05;14.70;74.30
77985;DHT22;67177;47.240;-1.546;2023-10-08T08:51:34;14.80;74.20
77985;DHT22;67177;47.240;-1.546;2023-10-08T08:54:00;14.90;74.00
77985;DHT22;67177;47.240;-1.546;2023-10-08T08:56:33;15.00;74.00
77985;DHT22;67177;47.240;-1.546;2023-10-08T08:58:59;15.00;73.90
77985;DHT22;67177;47.240;-1.546;2023-10-08T09:01:26;15.10;73.80
77985;DHT22;67177;47.240;-1.546;2023-10-08T09:03:59;15.10;73.80
77985;DHT22;67177;47.240;-1.546;2023-10-08T09:06:26;15.20;73.70
77985;DHT22;67177;47.240;-1.546;2023-10-08T09:08:53;15.20;73.40
77985;DHT22;67177;47.240;-1.546;2023-10-08T09:11:21;15.30;73.10
77985;DHT22;67177;47.240;-1.546;2023-10-08T09:13:47;15.40;72.90
77985;DHT22;67177;47.240;-1.546;2023-10-08T09:16:13;15.50;72.60
77985;DHT22;67177;47.240;-1.546;2023-10-08T09:18:42;15.50;72.50
77985;DHT22;67177;47.240;-1.546;2023-10-08T09:21:10;15.50;72.10
77985;DHT22;67177;47.240;-1.546;2023-10-08T09:23:40;15.60;71.80
77985;DHT22;67177;47.240;-1.546;2023-10-08T09:26:12;15.70;71.60
77985;DHT22;67177;47.240;-1.546;2023-10-08T09:28:44;15.70;71.30
77985;DHT22;67177;47.240;-1.546;2023-10-08T09:31:12;15.80;71.10
77985;DHT22;67177;47.240;-1.546;2023-10-08T09:33:38;15.80;70.90
77985;DHT22;67177;47.240;-1.546;2023-10-08T09:36:05;15.90;71.00
77985;DHT22;67177;47.240;-1.546;2023-10-08T09:38:35;15.90;70.80
77985;DHT22;67177;47.240;-1.546;2023-10-08T09:41:03;16.00;70.80
77985;DHT22;67177;47.240;-1.546;2023-10-08T09:43:31;16.00;70.40
77985;DHT22;67177;47.240;-1.546;2023-10-08T09:46:19;16.10;70.30
77985;DHT22;67177;47.240;-1.546;2023-10-08T09:48:51;16.10;70.10
77985;DHT22;67177;47.240;-1.546;2023-10-08T09:51:20;16.20;69.80
77985;DHT22;67177;47.240;-1.546;2023-10-08T09:56:42;16.30;69.30
77985;DHT22;67177;47.240;-1.546;2023-10-08T09:59:10;16.30;68.80
77985;DHT22;67177;47.240;-1.546;2023-10-08T10:01:39;16.40;68.80
77985;DHT22;67177;47.240;-1.546;2023-10-08T10:04:09;16.50;68.70
77985;DHT22;67177;47.240;-1.546;2023-10-08T10:06:36;16.50;68.60
77985;DHT22;67177;47.240;-1.546;2023-10-08T10:09:03;16.70;67.70
77985;DHT22;67177;47.240;-1.546;2023-10-08T10:11:33;16.80;67.50
77985;DHT22;67177;47.240;-1.546;2023-10-08T10:14:00;16.80;67.40
77985;DHT22;67177;47.240;-1.546;2023-10-08T10:16:26;16.80;67.30
77985;DHT22;67177;47.240;-1.546;2023-10-08T10:18:59;16.90;67.30
77985;DHT22;67177;47.240;-1.546;2023-10-08T10:21:27;17.00;67.10
77985;DHT22;67177;47.240;-1.546;2023-10-08T10:23:54;17.00;66.70
77985;DHT22;67177;47.240;-1.546;2023-10-08T10:31:39;17.20;66.30
77985;DHT22;67177;47.240;-1.546;2023-10-08T10:34:08;17.30;66.20
77985;DHT22;67177;47.240;-1.546;2023-10-08T10:36:38;17.30;66.20
77985;DHT22;67177;47.240;-1.546;2023-10-08T10:39:06;17.30;65.90
77985;DHT22;67177;47.240;-1.546;2023-10-08T10:41:43;17.40;65.40
77985;DHT22;67177;47.240;-1.546;2023-10-08T10:44:10;17.60;64.80
77985;DHT22;67177;47.240;-1.546;2023-10-08T10:46:36;17.80;64.50
77985;DHT22;67177;47.240;-1.546;2023-10-08T10:49:07;17.80;64.40
77985;DHT22;67177;47.240;-1.546;2023-10-08T10:51:42;17.80;64.30
77985;DHT22;67177;47.240;-1.546;2023-10-08T10:54:07;18.00;63.50
77985;DHT22;67177;47.240;-1.546;2023-10-08T10:56:35;18.10;63.30
77985;DHT22;67177;47.240;-1.546;2023-10-08T10:59:08;18.10;63.20
77985;DHT22;67177;47.240;-1.546;2023-10-08T11:01:52;18.10;63.30
77985;DHT22;67177;47.240;-1.546;2023-10-08T11:04:20;18.10;63.20
77985;DHT22;67177;47.240;-1.546;2023-10-08T11:06:55;18.20;62.40
77985;DHT22;67177;47.240;-1.546;2023-10-08T11:09:26;18.30;62.00
77985;DHT22;67177;47.240;-1.546;2023-10-08T11:12:06;18.40;61.80
77985;DHT22;67177;47.240;-1.546;2023-10-08T11:14:41;18.50;61.70
77985;DHT22;67177;47.240;-1.546;2023-10-08T11:17:44;18.40;61.80
77985;DHT22;67177;47.240;-1.546;2023-10-08T11:20:03;18.40;61.60
77985;DHT22;67177;47.240;-1.546;2023-10-08T11:22:42;18.50;61.40
77985;DHT22;67177;47.240;-1.546;2023-10-08T11:25:24;18.70;61.00
77985;DHT22;67177;47.240;-1.546;2023-10-08T11:27:56;18.80;60.90
77985;DHT22;67177;47.240;-1.546;2023-10-08T11:30:31;18.80;60.70
77985;DHT22;67177;47.240;-1.546;2023-10-08T11:33:00;18.80;60.70
77985;DHT22;67177;47.240;-1.546;2023-10-08T11:35:26;18.70;60.60
77985;DHT22;67177;47.240;-1.546;2023-10-08T11:37:59;18.70;60.60
77985;DHT22;67177;47.240;-1.546;2023-10-08T11:40:28;18.70;60.50
77985;DHT22;67177;47.240;-1.546;2023-10-08T11:42:55;18.80;60.30
77985;DHT22;67177;47.240;-1.546;2023-10-08T11:45:25;18.80;60.40
77985;DHT22;67177;47.240;-1.546;2023-10-08T11:47:52;18.90;60.20
77985;DHT22;67177;47.240;-1.546;2023-10-08T11:50:28;19.00;59.80
77985;DHT22;67177;47.240;-1.546;2023-10-08T11:52:58;19.10;59.70
77985;DHT22;67177;47.240;-1.546;2023-10-08T11:55:27;19.10;59.60
77985;DHT22;67177;47.240;-1.546;2023-10-08T11:57:53;19.20;59.50
77985;DHT22;67177;47.240;-1.546;2023-10-08T12:00:19;19.20;59.30
77985;DHT22;67177;47.240;-1.546;2023-10-08T12:02:52;19.20;59.20
77985;DHT22;67177;47.240;-1.546;2023-10-08T12:05:21;19.30;59.10
77985;DHT22;67177;47.240;-1.546;2023-10-08T12:07:50;19.40;59.00
77985;DHT22;67177;47.240;-1.546;2023-10-08T12:10:17;19.50;59.00
77985;DHT22;67177;47.240;-1.546;2023-10-08T12:12:51;19.40;58.80
77985;DHT22;67177;47.240;-1.546;2023-10-08T12:15:26;19.40;59.00
77985;DHT22;67177;47.240;-1.546;2023-10-08T12:18:04;19.40;59.00
77985;DHT22;67177;47.240;-1.546;2023-10-08T12:20:49;19.40;58.90
77985;DHT22;67177;47.240;-1.546;2023-10-08T12:23:14;19.60;58.70
77985;DHT22;67177;47.240;-1.546;2023-10-08T12:25:56;19.80;58.50
77985;DHT22;67177;47.240;-1.546;2023-10-08T12:28:22;19.80;58.50
77985;DHT22;67177;47.240;-1.546;2023-10-08T12:30:51;19.80;58.50
77985;DHT22;67177;47.240;-1.546;2023-10-08T12:33:24;19.70;58.70
77985;DHT22;67177;47.240;-1.546;2023-10-08T12:35:50;19.60;58.70
77985;DHT22;67177;47.240;-1.546;2023-10-08T12:38:24;19.70;58.80
77985;DHT22;67177;47.240;-1.546;2023-10-08T12:40:53;19.70;58.80
77985;DHT22;67177;47.240;-1.546;2023-10-08T12:43:20;19.70;59.00
77985;DHT22;67177;47.240;-1.546;2023-10-08T12:45:49;19.70;59.10
77985;DHT22;67177;47.240;-1.546;2023-10-08T12:50:44;19.70;59.40
77985;DHT22;67177;47.240;-1.546;2023-10-08T12:53:10;19.70;59.30
77985;DHT22;67177;47.240;-1.546;2023-10-08T12:55:39;19.80;59.40
77985;DHT22;67177;47.240;-1.546;2023-10-08T12:58:08;19.80;59.50
77985;DHT22;67177;47.240;-1.546;2023-10-08T13:00:39;19.90;59.40
77985;DHT22;67177;47.240;-1.546;2023-10-08T13:03:08;19.90;59.50
77985;DHT22;67177;47.240;-1.546;2023-10-08T13:05:41;19.90;59.60
77985;DHT22;67177;47.240;-1.546;2023-10-08T13:08:10;19.80;59.60
77985;DHT22;67177;47.240;-1.546;2023-10-08T13:10:41;19.80;59.80
77985;DHT22;67177;47.240;-1.546;2023-10-08T13:13:10;19.70;59.90
77985;DHT22;67177;47.240;-1.546;2023-10-08T13:15:37;19.80;60.10
77985;DHT22;67177;47.240;-1.546;2023-10-08T13:18:02;19.90;60.00
77985;DHT22;67177;47.240;-1.546;2023-10-08T13:20:31;19.90;60.10
77985;DHT22;67177;47.240;-1.546;2023-10-08T13:23:01;19.90;60.10
77985;DHT22;67177;47.240;-1.546;2023-10-08T13:25:27;19.90;60.30
77985;DHT22;67177;47.240;-1.546;2023-10-08T13:27:53;19.90;60.40
77985;DHT22;67177;47.240;-1.546;2023-10-08T13:30:20;20.00;60.50
77985;DHT22;67177;47.240;-1.546;2023-10-08T13:32:46;20.00;60.50
77985;DHT22;67177;47.240;-1.546;2023-10-08T13:35:12;20.00;60.60
77985;DHT22;67177;47.240;-1.546;2023-10-08T13:37:37;20.20;60.60
77985;DHT22;67177;47.240;-1.546;2023-10-08T13:40:03;20.30;60.50
77985;DHT22;67177;47.240;-1.546;2023-10-08T13:42:29;20.30;60.40
77985;DHT22;67177;47.240;-1.546;2023-10-08T13:44:55;20.30;60.30
77985;DHT22;67177;47.240;-1.546;2023-10-08T13:47:25;20.30;60.30
77985;DHT22;67177;47.240;-1.546;2023-10-08T13:49:55;20.30;60.40
77985;DHT22;67177;47.240;-1.546;2023-10-08T13:52:23;20.30;60.50
77985;DHT22;67177;47.240;-1.546;2023-10-08T13:54:52;20.20;60.60
77985;DHT22;67177;47.240;-1.546;2023-10-08T13:57:19;20.20;60.70
77985;DHT22;67177;47.240;-1.546;2023-10-08T13:59:46;20.10;60.70
77985;DHT22;67177;47.240;-1.546;2023-10-08T14:02:12;20.10;60.80
77985;DHT22;67177;47.240;-1.546;2023-10-08T14:04:42;20.20;60.80
77985;DHT22;67177;47.240;-1.546;2023-10-08T14:07:10;20.30;60.70
77985;DHT22;67177;47.240;-1.546;2023-10-08T14:09:47;20.30;60.70
77985;DHT22;67177;47.240;-1.546;2023-10-08T14:12:13;20.30;60.70
77985;DHT22;67177;47.240;-1.546;2023-10-08T14:14:42;20.30;60.90
77985;DHT22;67177;47.240;-1.546;2023-10-08T14:17:11;20.20;61.00
77985;DHT22;67177;47.240;-1.546;2023-10-08T14:19:41;20.30;61.10
77985;DHT22;67177;47.240;-1.546;2023-10-08T14:22:34;20.40;61.10
77985;DHT22;67177;47.240;-1.546;2023-10-08T14:25:01;20.40;61.00
77985;DHT22;67177;47.240;-1.546;2023-10-08T14:27:28;20.40;60.80
77985;DHT22;67177;47.240;-1.546;2023-10-08T14:30:07;20.40;60.60
77985;DHT22;67177;47.240;-1.546;2023-10-08T14:32:43;20.30;60.70
77985;DHT22;67177;47.240;-1.546;2023-10-08T14:35:12;20.20;60.70
77985;DHT22;67177;47.240;-1.546;2023-10-08T14:37:56;20.10;61.00
77985;DHT22;67177;47.240;-1.546;2023-10-08T14:40:40;20.10;61.30
77985;DHT22;67177;47.240;-1.546;2023-10-08T14:43:24;20.00;61.60
77985;DHT22;67177;47.240;-1.546;2023-10-08T14:45:50;20.00;61.80
77985;DHT22;67177;47.240;-1.546;2023-10-08T14:48:18;20.10;61.80
77985;DHT22;67177;47.240;-1.546;2023-10-08T14:50:44;20.20;61.80
77985;DHT22;67177;47.240;-1.546;2023-10-08T14:53:11;20.30;61.90
77985;DHT22;67177;47.240;-1.546;2023-10-08T14:55:37;20.30;61.70
77985;DHT22;67177;47.240;-1.546;2023-10-08T14:58:07;20.30;61.70
77985;DHT22;67177;47.240;-1.546;2023-10-08T15:00:37;20.30;61.80
77985;DHT22;67177;47.240;-1.546;2023-10-08T15:03:04;20.20;61.90
77985;DHT22;67177;47.240;-1.546;2023-10-08T15:05:30;20.20;62.00
77985;DHT22;67177;47.240;-1.546;2023-10-08T15:07:58;20.20;62.10
77985;DHT22;67177;47.240;-1.546;2023-10-08T15:10:24;20.20;62.20
77985;DHT22;67177;47.240;-1.546;2023-10-08T15:12:51;20.30;62.20
77985;DHT22;67177;47.240;-1.546;2023-10-08T15:15:17;20.30;62.20
77985;DHT22;67177;47.240;-1.546;2023-10-08T15:17:45;20.20;62.30
77985;DHT22;67177;47.240;-1.546;2023-10-08T15:20:13;20.10;62.50
77985;DHT22;67177;47.240;-1.546;2023-10-08T15:22:49;20.00;62.70
77985;DHT22;67177;47.240;-1.546;2023-10-08T15:25:16;19.90;62.80
77985;DHT22;67177;47.240;-1.546;2023-10-08T15:27:43;19.90;63.10
77985;DHT22;67177;47.240;-1.546;2023-10-08T15:30:17;19.80;63.30
77985;DHT22;67177;47.240;-1.546;2023-10-08T15:32:46;19.80;63.60
77985;DHT22;67177;47.240;-1.546;2023-10-08T15:35:17;19.70;63.70
77985;DHT22;67177;47.240;-1.546;2023-10-08T15:37:47;19.70;63.90
77985;DHT22;67177;47.240;-1.546;2023-10-08T15:40:13;19.60;64.10
77985;DHT22;67177;47.240;-1.546;2023-10-08T15:42:50;19.60;64.30
77985;DHT22;67177;47.240;-1.546;2023-10-08T15:45:17;19.50;64.60
77985;DHT22;67177;47.240;-1.546;2023-10-08T15:47:43;19.50;64.80
77985;DHT22;67177;47.240;-1.546;2023-10-08T15:50:09;19.50;64.90
77985;DHT22;67177;47.240;-1.546;2023-10-08T15:52:36;19.40;65.10
77985;DHT22;67177;47.240;-1.546;2023-10-08T15:55:03;19.40;65.50
77985;DHT22;67177;47.240;-1.546;2023-10-08T15:57:29;19.40;65.70